sensor_id;sensor_type;location;lat;lon;timestamp;pressure;altitude;pressure_sealevel;temperature;humidity
21086;BME280;34247;50.064;19.970;2022-08-19T00:00:37;98752.97;;;25.39;75.06
21086;BME280;34247;50.064;19.970;2022-08-19T00:01:43;98751.31;;;25.38;74.97
21086;BME280;34247;50.064;19.970;2022-08-19T00:02:56;98752.59;;;25.36;74.81
21086;BME280;34247;50.064;19.970;2022-08-19T00:04:04;98751.75;;;25.35;75.31
21086;BME280;34247;50.064;19.970;2022-08-19T00:05:10;98749.44;;;25.32;75.12
21086;BME280;34247;50.064;19.970;2022-08-19T00:06:15;98751.94;;;25.34;74.96
21086;BME280;34247;50.064;19.970;2022-08-19T00:07:23;98751.31;;;25.32;75.32
21086;BME280;34247;50.064;19.970;2022-08-19T00:08:27;98745.06;;;25.31;75.33
21086;BME280;34247;50.064;19.970;2022-08-19T00:09:32;98750.50;;;25.31;75.35
21086;BME280;34247;50.064;19.970;2022-08-19T00:10:37;98748.81;;;25.30;75.57
21086;BME280;34247;50.064;19.970;2022-08-19T00:11:42;98754.66;;;25.27;75.65
21086;BME280;34247;50.064;19.970;2022-08-19T00:12:47;98760.94;;;25.27;75.50
21086;BME280;34247;50.064;19.970;2022-08-19T00:13:51;98759.06;;;25.28;75.40
21086;BME280;34247;50.064;19.970;2022-08-19T00:14:55;98760.09;;;25.27;75.48
21086;BME280;34247;50.064;19.970;2022-08-19T00:15:59;98753.22;;;25.24;76.02
21086;BME280;34247;50.064;19.970;2022-08-19T00:17:06;98751.97;;;25.20;76.08
21086;BME280;34247;50.064;19.970;2022-08-19T00:18:10;98751.56;;;25.17;76.26
21086;BME280;34247;50.064;19.970;2022-08-19T00:19:16;98754.28;;;25.17;76.00
21086;BME280;34247;50.064;19.970;2022-08-19T00:20:21;98749.91;;;25.16;76.20
21086;BME280;34247;50.064;19.970;2022-08-19T00:21:26;98755.53;;;25.14;76.45
21086;BME280;34247;50.064;19.970;2022-08-19T00:22:30;98749.06;;;25.09;76.42
21086;BME280;34247;50.064;19.970;2022-08-19T00:23:35;98754.28;;;25.10;76.65
21086;BME280;34247;50.064;19.970;2022-08-19T00:24:39;98751.78;;;25.09;76.64
21086;BME280;34247;50.064;19.970;2022-08-19T00:25:53;98746.31;;;25.02;76.69
21086;BME280;34247;50.064;19.970;2022-08-19T00:26:58;98739.03;;;24.96;76.86
21086;BME280;34247;50.064;19.970;2022-08-19T00:28:22;98749.69;;;25.04;76.65
21086;BME280;34247;50.064;19.970;2022-08-19T00:29:26;98751.75;;;25.02;76.62
21086;BME280;34247;50.064;19.970;2022-08-19T00:30:30;98748.63;;;24.98;77.17
21086;BME280;34247;50.064;19.970;2022-08-19T00:31:35;98753.44;;;24.96;76.85
21086;BME280;34247;50.064;19.970;2022-08-19T00:32:39;98754.25;;;24.97;77.06
21086;BME280;34247;50.064;19.970;2022-08-19T00:33:43;98753.44;;;24.96;77.19
21086;BME280;34247;50.064;19.970;2022-08-19T00:34:47;98750.72;;;24.96;77.23
21086;BME280;34247;50.064;19.970;2022-08-19T00:35:52;98748.00;;;24.96;77.13
21086;BME280;34247;50.064;19.970;2022-08-19T00:36:59;98723.38;;;24.78;77.33
21086;BME280;34247;50.064;19.970;2022-08-19T00:38:02;98733.81;;;24.88;77.04
21086;BME280;34247;50.064;19.970;2022-08-19T00:39:08;98750.09;;;24.94;77.18
21086;BME280;34247;50.064;19.970;2022-08-19T00:40:14;98744.44;;;24.96;77.16
21086;BME280;34247;50.064;19.970;2022-08-19T00:41:21;98750.94;;;24.95;77.24
21086;BME280;34247;50.064;19.970;2022-08-19T00:42:26;98746.94;;;24.91;77.79
21086;BME280;34247;50.064;19.970;2022-08-19T00:43:32;98755.31;;;24.89;77.85
21086;BME280;34247;50.064;19.970;2022-08-19T00:44:36;98751.53;;;24.90;77.95
21086;BME280;34247;50.064;19.970;2022-08-19T00:45:41;98746.56;;;24.87;78.02
21086;BME280;34247;50.064;19.970;2022-08-19T00:46:50;98748.00;;;24.90;78.08
21086;BME280;34247;50.064;19.970;2022-08-19T00:48:01;98752.38;;;24.91;77.85
21086;BME280;34247;50.064;19.970;2022-08-19T00:49:31;98752.19;;;24.92;77.92
21086;BME280;34247;50.064;19.970;2022-08-19T00:50:40;98745.06;;;24.91;77.79
21086;BME280;34247;50.064;19.970;2022-08-19T00:52:25;98753.44;;;24.90;78.16
21086;BME280;34247;50.064;19.970;2022-08-19T00:53:31;98748.84;;;24.90;78.06
21086;BME280;34247;50.064;19.970;2022-08-19T00:54:38;98742.78;;;24.88;78.19
21086;BME280;34247;50.064;19.970;2022-08-19T00:55:46;98749.66;;;24.91;78.19
21086;BME280;34247;50.064;19.970;2022-08-19T00:56:54;98759.50;;;24.92;77.95
21086;BME280;34247;50.064;19.970;2022-08-19T00:58:12;98746.94;;;24.91;78.29
21086;BME280;34247;50.064;19.970;2022-08-19T00:59:19;98734.25;;;24.85;78.22
21086;BME280;34247;50.064;19.970;2022-08-19T01:00:45;98740.50;;;24.92;78.39
21086;BME280;34247;50.064;19.970;2022-08-19T01:01:49;98742.56;;;24.90;78.43
21086;BME280;34247;50.064;19.970;2022-08-19T01:02:54;98750.94;;;24.88;78.16
21086;BME280;34247;50.064;19.970;2022-08-19T01:03:59;98748.84;;;24.90;78.38
21086;BME280;34247;50.064;19.970;2022-08-19T01:05:09;98743.00;;;24.87;78.29
21086;BME280;34247;50.064;19.970;2022-08-19T01:06:14;98743.63;;;24.89;78.69
21086;BME280;34247;50.064;19.970;2022-08-19T01:07:23;98741.75;;;24.89;78.33
21086;BME280;34247;50.064;19.970;2022-08-19T01:08:28;98722.13;;;24.74;78.96
21086;BME280;34247;50.064;19.970;2022-08-19T01:09:32;98734.66;;;24.82;79.15
21086;BME280;34247;50.064;19.970;2022-08-19T01:10:50;98734.66;;;24.82;79.08
21086;BME280;34247;50.064;19.970;2022-08-19T01:11:56;98730.25;;;24.81;79.11
21086;BME280;34247;50.064;19.970;2022-08-19T01:13:01;98732.56;;;24.77;79.46
21086;BME280;34247;50.064;19.970;2022-08-19T01:14:09;98740.72;;;24.77;79.61
21086;BME280;34247;50.064;19.970;2022-08-19T01:15:21;98739.03;;;24.76;79.37
21086;BME280;34247;50.064;19.970;2022-08-19T01:16:28;98738.19;;;24.69;80.19
21086;BME280;34247;50.064;19.970;2022-08-19T01:17:36;98730.47;;;24.66;80.65
21086;BME280;34247;50.064;19.970;2022-08-19T01:18:43;98728.38;;;24.61;80.86
21086;BME280;34247;50.064;19.970;2022-08-19T01:19:48;98728.38;;;24.61;80.60
21086;BME280;34247;50.064;19.970;2022-08-19T01:20:56;98704.38;;;24.52;80.64
21086;BME280;34247;50.064;19.970;2022-08-19T01:23:33;98717.53;;;24.61;80.63
21086;BME280;34247;50.064;19.970;2022-08-19T01:24:46;98715.84;;;24.60;80.63
21086;BME280;34247;50.064;19.970;2022-08-19T01:25:53;98706.88;;;24.60;80.90
21086;BME280;34247;50.064;19.970;2022-08-19T01:26:58;98710.66;;;24.59;80.77
21086;BME280;34247;50.064;19.970;2022-08-19T01:28:02;98711.47;;;24.59;80.82
21086;BME280;34247;50.064;19.970;2022-08-19T01:29:13;98704.59;;;24.57;81.00
21086;BME280;34247;50.064;19.970;2022-08-19T01:30:26;98707.50;;;24.55;80.78
21086;BME280;34247;50.064;19.970;2022-08-19T01:31:30;98707.50;;;24.55;80.93
21086;BME280;34247;50.064;19.970;2022-08-19T01:32:35;98714.81;;;24.55;81.18
21086;BME280;34247;50.064;19.970;2022-08-19T01:33:39;98706.03;;;24.46;81.22
21086;BME280;34247;50.064;19.970;2022-08-19T01:34:45;98717.53;;;24.55;81.09
21086;BME280;34247;50.064;19.970;2022-08-19T01:35:50;98721.94;;;24.56;81.32
21086;BME280;34247;50.064;19.970;2022-08-19T01:36:54;98709.81;;;24.52;81.23
21086;BME280;34247;50.064;19.970;2022-08-19T01:38:04;98709.59;;;24.53;81.41
21086;BME280;34247;50.064;19.970;2022-08-19T01:39:19;98709.59;;;24.53;81.25
21086;BME280;34247;50.064;19.970;2022-08-19T01:40:31;98711.25;;;24.54;81.08
21086;BME280;34247;50.064;19.970;2022-08-19T01:41:36;98703.34;;;24.53;81.22
21086;BME280;34247;50.064;19.970;2022-08-19T01:42:40;98705.00;;;24.54;81.08
21086;BME280;34247;50.064;19.970;2022-08-19T01:43:46;98703.78;;;24.50;81.36
21086;BME280;34247;50.064;19.970;2022-08-19T01:45:10;98701.25;;;24.48;81.46
21086;BME280;34247;50.064;19.970;2022-08-19T01:46:14;98700.41;;;24.47;81.68
21086;BME280;34247;50.064;19.970;2022-08-19T01:47:18;98702.50;;;24.45;81.54
21086;BME280;34247;50.064;19.970;2022-08-19T01:48:22;98701.44;;;24.46;81.88
21086;BME280;34247;50.064;19.970;2022-08-19T01:49:27;98705.00;;;24.40;82.04
21086;BME280;34247;50.064;19.970;2022-08-19T01:50:33;98706.03;;;24.39;82.07
21086;BME280;34247;50.064;19.970;2022-08-19T01:51:37;98707.91;;;24.39;82.28
21086;BME280;34247;50.064;19.970;2022-08-19T01:52:44;98707.91;;;24.39;82.09
21086;BME280;34247;50.064;19.970;2022-08-19T01:53:50;98709.78;;;24.38;82.45
21086;BME280;34247;50.064;19.970;2022-08-19T01:54:54;98714.59;;;24.36;82.35
21086;BME280;34247;50.064;19.970;2022-08-19T01:55:59;98716.69;;;24.34;82.46
21086;BME280;34247;50.064;19.970;2022-08-19T01:57:11;98710.59;;;24.32;82.44
21086;BME280;34247;50.064;19.970;2022-08-19T01:58:21;98719.59;;;24.33;82.58
21086;BME280;34247;50.064;19.970;2022-08-19T01:59:27;98712.28;;;24.33;82.45
21086;BME280;34247;50.064;19.970;2022-08-19T02:00:32;98731.28;;;24.33;82.72
21086;BME280;34247;50.064;19.970;2022-08-19T02:01:37;98716.69;;;24.34;82.51
21086;BME280;34247;50.064;19.970;2022-08-19T02:02:42;98724.34;;;24.31;83.04
21086;BME280;34247;50.064;19.970;2022-08-19T02:03:47;98709.97;;;24.30;82.64
21086;BME280;34247;50.064;19.970;2022-08-19T02:04:51;98728.13;;;24.30;82.82
21086;BME280;34247;50.064;19.970;2022-08-19T02:06:00;98719.16;;;24.29;82.77
21086;BME280;34247;50.064;19.970;2022-08-19T02:07:07;98717.06;;;24.31;82.72
21086;BME280;34247;50.064;19.970;2022-08-19T02:08:12;98715.38;;;24.30;82.67
21086;BME280;34247;50.064;19.970;2022-08-19T02:09:16;98709.13;;;24.30;82.95
21086;BME280;34247;50.064;19.970;2022-08-19T02:10:22;98684.31;;;24.13;83.17
21086;BME280;34247;50.064;19.970;2022-08-19T02:11:32;98712.88;;;24.22;82.95
21086;BME280;34247;50.064;19.970;2022-08-19T02:12:37;98713.72;;;24.29;83.16
21086;BME280;34247;50.064;19.970;2022-08-19T02:13:40;98714.56;;;24.30;82.87
21086;BME280;34247;50.064;19.970;2022-08-19T02:14:45;98721.88;;;24.29;83.04
21086;BME280;34247;50.064;19.970;2022-08-19T02:15:49;98712.88;;;24.22;83.61
21086;BME280;34247;50.064;19.970;2022-08-19T02:16:53;98698.91;;;24.12;83.35
21086;BME280;34247;50.064;19.970;2022-08-19T02:17:58;98709.09;;;24.16;83.31
21086;BME280;34247;50.064;19.970;2022-08-19T02:19:04;98716.19;;;24.17;83.91
21086;BME280;34247;50.064;19.970;2022-08-19T02:20:09;98705.78;;;24.14;83.94
21086;BME280;34247;50.064;19.970;2022-08-19T02:21:15;98705.34;;;24.11;84.12
21086;BME280;34247;50.064;19.970;2022-08-19T02:22:20;98701.41;;;24.13;83.92
21086;BME280;34247;50.064;19.970;2022-08-19T02:23:24;98706.16;;;24.11;84.16
21086;BME280;34247;50.064;19.970;2022-08-19T02:24:28;98695.34;;;24.05;84.68
21086;BME280;34247;50.064;19.970;2022-08-19T02:25:32;98699.91;;;24.04;84.60
21086;BME280;34247;50.064;19.970;2022-08-19T02:26:36;98699.03;;;23.97;85.04
21086;BME280;34247;50.064;19.970;2022-08-19T02:27:42;98702.19;;;23.94;85.14
21086;BME280;34247;50.064;19.970;2022-08-19T02:28:47;98693.63;;;23.90;85.67
21086;BME280;34247;50.064;19.970;2022-08-19T02:29:53;98700.28;;;23.88;85.62
21086;BME280;34247;50.064;19.970;2022-08-19T02:30:57;98697.78;;;23.86;85.81
21086;BME280;34247;50.064;19.970;2022-08-19T02:32:04;98691.50;;;23.79;86.04
21086;BME280;34247;50.064;19.970;2022-08-19T02:33:08;98691.09;;;23.76;86.35
21086;BME280;34247;50.064;19.970;2022-08-19T02:34:12;98693.56;;;23.71;86.44
21086;BME280;34247;50.064;19.970;2022-08-19T02:35:16;98696.06;;;23.72;86.41
21086;BME280;34247;50.064;19.970;2022-08-19T02:36:21;98698.56;;;23.74;86.72
21086;BME280;34247;50.064;19.970;2022-08-19T02:37:25;98696.06;;;23.72;86.78
21086;BME280;34247;50.064;19.970;2022-08-19T02:38:47;98700.88;;;23.70;86.80
21086;BME280;34247;50.064;19.970;2022-08-19T02:39:58;98699.38;;;23.67;86.85
21086;BME280;34247;50.064;19.970;2022-08-19T02:41:16;98707.09;;;23.64;87.10
21086;BME280;34247;50.064;19.970;2022-08-19T02:42:21;98708.75;;;23.65;86.89
21086;BME280;34247;50.064;19.970;2022-08-19T02:43:27;98703.75;;;23.62;87.50
21086;BME280;34247;50.064;19.970;2022-08-19T02:44:35;98705.16;;;23.58;87.46
21086;BME280;34247;50.064;19.970;2022-08-19T02:45:39;98714.59;;;23.62;87.34
21086;BME280;34247;50.064;19.970;2022-08-19T02:46:47;98706.56;;;23.54;88.03
21086;BME280;34247;50.064;19.970;2022-08-19T02:47:53;98710.31;;;23.53;88.36
21086;BME280;34247;50.064;19.970;2022-08-19T02:49:04;98716.38;;;23.48;88.42
21086;BME280;34247;50.064;19.970;2022-08-19T02:50:09;98715.31;;;23.49;88.49
21086;BME280;34247;50.064;19.970;2022-08-19T02:51:21;98715.53;;;23.48;88.40
21086;BME280;34247;50.064;19.970;2022-08-19T02:52:25;98710.75;;;23.50;88.02
21086;BME280;34247;50.064;19.970;2022-08-19T02:53:31;98704.69;;;23.48;88.19
21086;BME280;34247;50.064;19.970;2022-08-19T02:54:35;98701.34;;;23.46;88.50
21086;BME280;34247;50.064;19.970;2022-08-19T02:55:45;98708.22;;;23.42;88.61
21086;BME280;34247;50.064;19.970;2022-08-19T02:56:49;98706.53;;;23.41;88.79
21086;BME280;34247;50.064;19.970;2022-08-19T02:57:53;98709.66;;;23.44;88.55
21086;BME280;34247;50.064;19.970;2022-08-19T02:58:58;98708.63;;;23.45;88.69
21086;BME280;34247;50.064;19.970;2022-08-19T03:00:07;98709.88;;;23.43;88.65
21086;BME280;34247;50.064;19.970;2022-08-19T03:01:28;98714.00;;;23.38;88.97
21086;BME280;34247;50.064;19.970;2022-08-19T03:02:33;98718.41;;;23.39;88.59
21086;BME280;34247;50.064;19.970;2022-08-19T03:03:38;98713.19;;;23.38;88.84
21086;BME280;34247;50.064;19.970;2022-08-19T03:04:42;98719.25;;;23.40;88.74
21086;BME280;34247;50.064;19.970;2022-08-19T03:05:46;98688.31;;;23.21;88.64
21086;BME280;34247;50.064;19.970;2022-08-19T03:06:59;98712.34;;;23.37;88.87
21086;BME280;34247;50.064;19.970;2022-08-19T03:08:15;98728.00;;;23.42;88.54
21086;BME280;34247;50.064;19.970;2022-08-19T03:09:20;98724.03;;;23.45;88.48
21086;BME280;34247;50.064;19.970;2022-08-19T03:10:24;98713.38;;;23.36;88.44
21086;BME280;34247;50.064;19.970;2022-08-19T03:11:31;98730.28;;;23.45;88.56
21086;BME280;34247;50.064;19.970;2022-08-19T03:12:38;98732.16;;;23.45;88.65
21086;BME280;34247;50.064;19.970;2022-08-19T03:13:42;98733.84;;;23.46;88.42
21086;BME280;34247;50.064;19.970;2022-08-19T03:14:47;98729.66;;;23.43;88.65
21086;BME280;34247;50.064;19.970;2022-08-19T03:15:51;98734.47;;;23.41;88.44
21086;BME280;34247;50.064;19.970;2022-08-19T03:16:55;98726.09;;;23.36;88.79
21086;BME280;34247;50.064;19.970;2022-08-19T03:17:59;98726.28;;;23.34;88.99
21086;BME280;34247;50.064;19.970;2022-08-19T03:19:04;98729.00;;;23.34;89.30
21086;BME280;34247;50.064;19.970;2022-08-19T03:20:10;98728.38;;;23.32;89.14
21086;BME280;34247;50.064;19.970;2022-08-19T03:21:21;98727.34;;;23.33;88.97
21086;BME280;34247;50.064;19.970;2022-08-19T03:22:26;98726.72;;;23.38;89.14
21086;BME280;34247;50.064;19.970;2022-08-19T03:23:30;98730.09;;;23.40;88.71
21086;BME280;34247;50.064;19.970;2022-08-19T03:24:35;98733.41;;;23.42;88.66
21086;BME280;34247;50.064;19.970;2022-08-19T03:25:44;98734.25;;;23.43;89.08
21086;BME280;34247;50.064;19.970;2022-08-19T03:26:52;98722.13;;;23.38;88.57
21086;BME280;34247;50.064;19.970;2022-08-19T03:27:58;98741.78;;;23.47;88.53
21086;BME280;34247;50.064;19.970;2022-08-19T03:29:04;98729.25;;;23.46;88.54
21086;BME280;34247;50.064;19.970;2022-08-19T03:30:12;98737.38;;;23.46;88.55
21086;BME280;34247;50.064;19.970;2022-08-19T03:31:26;98730.13;;;23.47;88.48
21086;BME280;34247;50.064;19.970;2022-08-19T03:32:48;98734.66;;;23.46;88.33
21086;BME280;34247;50.064;19.970;2022-08-19T03:34:00;98732.81;;;23.47;88.39
21086;BME280;34247;50.064;19.970;2022-08-19T03:35:09;98720.50;;;23.44;88.28
21086;BME280;34247;50.064;19.970;2022-08-19T03:36:20;98714.00;;;23.38;88.64
21086;BME280;34247;50.064;19.970;2022-08-19T03:37:26;98730.94;;;23.47;88.20
21086;BME280;34247;50.064;19.970;2022-08-19T03:38:31;98730.13;;;23.47;88.18
21086;BME280;34247;50.064;19.970;2022-08-19T03:39:38;98726.38;;;23.48;88.27
21086;BME280;34247;50.064;19.970;2022-08-19T03:40:42;98724.50;;;23.48;88.17
21086;BME280;34247;50.064;19.970;2022-08-19T03:41:48;98734.66;;;23.46;88.48
21086;BME280;34247;50.064;19.970;2022-08-19T03:43:13;98711.72;;;23.35;88.30
21086;BME280;34247;50.064;19.970;2022-08-19T03:44:23;98735.13;;;23.50;88.45
21086;BME280;34247;50.064;19.970;2022-08-19T03:45:27;98718.00;;;23.43;88.23
21086;BME280;34247;50.064;19.970;2022-08-19T03:46:33;98739.28;;;23.52;88.30
21086;BME280;34247;50.064;19.970;2022-08-19T03:47:37;98736.78;;;23.51;88.20
21086;BME280;34247;50.064;19.970;2022-08-19T03:48:44;98737.63;;;23.51;88.29
21086;BME280;34247;50.064;19.970;2022-08-19T03:49:48;98736.78;;;23.51;88.34
21086;BME280;34247;50.064;19.970;2022-08-19T03:50:51;98739.28;;;23.52;88.29
21086;BME280;34247;50.064;19.970;2022-08-19T03:51:58;98725.13;;;23.50;88.11
21086;BME280;34247;50.064;19.970;2022-08-19T03:53:04;98732.19;;;23.51;88.08
21086;BME280;34247;50.064;19.970;2022-08-19T03:54:12;98741.63;;;23.55;88.08
21086;BME280;34247;50.064;19.970;2022-08-19T03:55:18;98738.69;;;23.57;87.92
21086;BME280;34247;50.064;19.970;2022-08-19T03:56:23;98739.53;;;23.57;87.84
21086;BME280;34247;50.064;19.970;2022-08-19T03:57:29;98749.97;;;23.60;88.00
21086;BME280;34247;50.064;19.970;2022-08-19T03:58:35;98743.69;;;23.60;87.71
21086;BME280;34247;50.064;19.970;2022-08-19T03:59:39;98749.81;;;23.62;87.49
21086;BME280;34247;50.064;19.970;2022-08-19T04:00:43;98746.06;;;23.63;87.79
21086;BME280;34247;50.064;19.970;2022-08-19T04:01:47;98741.69;;;23.62;87.76
21086;BME280;34247;50.064;19.970;2022-08-19T04:02:51;98738.97;;;23.62;87.77
21086;BME280;34247;50.064;19.970;2022-08-19T04:04:02;98732.31;;;23.64;87.67
21086;BME280;34247;50.064;19.970;2022-08-19T04:05:07;98720.56;;;23.57;87.60
21086;BME280;34247;50.064;19.970;2022-08-19T04:06:31;98733.75;;;23.67;87.55
21086;BME280;34247;50.064;19.970;2022-08-19T04:07:35;98717.66;;;23.59;87.41
21086;BME280;34247;50.064;19.970;2022-08-19T04:08:45;98726.69;;;23.66;87.35
21086;BME280;34247;50.064;19.970;2022-08-19T04:09:49;98727.09;;;23.63;87.45
21086;BME280;34247;50.064;19.970;2022-08-19T04:10:55;98725.84;;;23.65;87.69
21086;BME280;34247;50.064;19.970;2022-08-19T04:11:59;98725.84;;;23.65;87.53
21086;BME280;34247;50.064;19.970;2022-08-19T04:13:04;98725.84;;;23.65;87.81
21086;BME280;34247;50.064;19.970;2022-08-19T04:14:15;98721.81;;;23.55;88.00
21086;BME280;34247;50.064;19.970;2022-08-19T04:15:20;98734.38;;;23.62;87.68
21086;BME280;34247;50.064;19.970;2022-08-19T04:16:29;98721.03;;;23.61;87.64
21086;BME280;34247;50.064;19.970;2022-08-19T04:17:37;98723.34;;;23.64;87.78
21086;BME280;34247;50.064;19.970;2022-08-19T04:18:41;98725.22;;;23.63;87.76
21086;BME280;34247;50.064;19.970;2022-08-19T04:19:46;98726.06;;;23.64;87.58
21086;BME280;34247;50.064;19.970;2022-08-19T04:20:49;98727.72;;;23.65;87.64
21086;BME280;34247;50.064;19.970;2022-08-19T04:21:54;98724.81;;;23.66;87.49
21086;BME280;34247;50.064;19.970;2022-08-19T04:22:58;98724.19;;;23.64;87.57
21086;BME280;34247;50.064;19.970;2022-08-19T04:24:03;98728.34;;;23.67;87.48
21086;BME280;34247;50.064;19.970;2022-08-19T04:25:08;98733.38;;;23.70;87.45
21086;BME280;34247;50.064;19.970;2022-08-19T04:26:16;98737.53;;;23.73;87.46
21086;BME280;34247;50.064;19.970;2022-08-19T04:27:23;98724.38;;;23.63;87.18
21086;BME280;34247;50.064;19.970;2022-08-19T04:28:26;98731.25;;;23.65;87.15
21086;BME280;34247;50.064;19.970;2022-08-19T04:29:30;98742.34;;;23.71;87.25
21086;BME280;34247;50.064;19.970;2022-08-19T04:30:47;98734.41;;;23.69;87.30
21086;BME280;34247;50.064;19.970;2022-08-19T04:31:54;98732.97;;;23.73;86.98
21086;BME280;34247;50.064;19.970;2022-08-19T04:32:59;98731.09;;;23.74;87.00
21086;BME280;34247;50.064;19.970;2022-08-19T04:34:09;98735.00;;;23.64;87.31
21086;BME280;34247;50.064;19.970;2022-08-19T04:35:17;98728.31;;;23.60;87.65
21086;BME280;34247;50.064;19.970;2022-08-19T04:36:31;98726.88;;;23.64;87.46
21086;BME280;34247;50.064;19.970;2022-08-19T04:37:35;98724.38;;;23.63;87.95
21086;BME280;34247;50.064;19.970;2022-08-19T04:38:39;98726.06;;;23.64;87.61
21086;BME280;34247;50.064;19.970;2022-08-19T04:39:43;98733.72;;;23.60;87.89
21086;BME280;34247;50.064;19.970;2022-08-19T04:41:05;98740.16;;;23.59;88.08
21086;BME280;34247;50.064;19.970;2022-08-19T04:42:28;98743.91;;;23.58;88.09
21086;BME280;34247;50.064;19.970;2022-08-19T04:43:45;98741.19;;;23.58;88.17
21086;BME280;34247;50.064;19.970;2022-08-19T04:44:52;98753.53;;;23.61;88.06
21086;BME280;34247;50.064;19.970;2022-08-19T04:45:57;98749.75;;;23.55;88.33
21086;BME280;34247;50.064;19.970;2022-08-19T04:47:04;98751.69;;;23.61;88.41
21086;BME280;34247;50.064;19.970;2022-08-19T04:48:13;98757.72;;;23.63;87.96
21086;BME280;34247;50.064;19.970;2022-08-19T04:49:30;98756.94;;;23.70;87.82
21086;BME280;34247;50.064;19.970;2022-08-19T04:50:34;98761.94;;;23.73;87.53
21086;BME280;34247;50.064;19.970;2022-08-19T04:51:42;98761.97;;;23.79;87.41
21086;BME280;34247;50.064;19.970;2022-08-19T04:52:46;98755.09;;;23.83;87.15
21086;BME280;34247;50.064;19.970;2022-08-19T04:53:51;98758.44;;;23.85;86.67
21086;BME280;34247;50.064;19.970;2022-08-19T04:54:55;98772.22;;;23.90;86.42
21086;BME280;34247;50.064;19.970;2022-08-19T04:56:09;98770.16;;;23.92;86.34
21086;BME280;34247;50.064;19.970;2022-08-19T04:57:14;98770.34;;;23.91;86.16
21086;BME280;34247;50.064;19.970;2022-08-19T04:58:18;98772.03;;;23.92;86.18
21086;BME280;34247;50.064;19.970;2022-08-19T04:59:22;98776.16;;;23.88;86.03
21086;BME280;34247;50.064;19.970;2022-08-19T05:00:29;98776.13;;;23.81;86.23
21086;BME280;34247;50.064;19.970;2022-08-19T05:01:37;98786.59;;;23.84;86.52
21086;BME280;34247;50.064;19.970;2022-08-19T05:02:42;98778.25;;;23.86;86.47
21086;BME280;34247;50.064;19.970;2022-08-19T05:03:47;98768.66;;;23.83;86.23
21086;BME280;34247;50.064;19.970;2022-08-19T05:04:57;98776.59;;;23.91;86.32
21086;BME280;34247;50.064;19.970;2022-08-19T05:06:09;98775.81;;;23.98;85.89
21086;BME280;34247;50.064;19.970;2022-08-19T05:07:13;98776.22;;;24.01;85.50
21086;BME280;34247;50.064;19.970;2022-08-19T05:08:20;98773.94;;;24.05;85.43
21086;BME280;34247;50.064;19.970;2022-08-19T05:09:34;98784.38;;;24.08;85.21
21086;BME280;34247;50.064;19.970;2022-08-19T05:10:58;98777.53;;;24.12;85.14
21086;BME280;34247;50.064;19.970;2022-08-19T05:12:03;98787.72;;;24.10;84.90
21086;BME280;34247;50.064;19.970;2022-08-19T05:13:07;98784.59;;;24.13;84.71
21086;BME280;34247;50.064;19.970;2022-08-19T05:14:12;98775.19;;;24.09;84.76
21086;BME280;34247;50.064;19.970;2022-08-19T05:15:16;98784.81;;;24.18;84.74
21086;BME280;34247;50.064;19.970;2022-08-19T05:16:22;98785.84;;;24.17;84.48
21086;BME280;34247;50.064;19.970;2022-08-19T05:17:27;98787.97;;;24.21;84.56
21086;BME280;34247;50.064;19.970;2022-08-19T05:18:37;98786.31;;;24.27;84.12
21086;BME280;34247;50.064;19.970;2022-08-19T05:20:00;98779.25;;;24.33;83.83
21086;BME280;34247;50.064;19.970;2022-08-19T05:21:23;98778.66;;;24.37;83.21
21086;BME280;34247;50.064;19.970;2022-08-19T05:22:47;98780.75;;;24.42;83.19
21086;BME280;34247;50.064;19.970;2022-08-19T05:23:52;98775.13;;;24.43;83.37
21086;BME280;34247;50.064;19.970;2022-08-19T05:24:56;98779.91;;;24.48;83.21
21086;BME280;34247;50.064;19.970;2022-08-19T05:26:15;98786.00;;;24.57;82.87
21086;BME280;34247;50.064;19.970;2022-08-19T05:27:19;98784.13;;;24.64;82.59
21086;BME280;34247;50.064;19.970;2022-08-19T05:28:23;98779.53;;;24.71;82.22
21086;BME280;34247;50.064;19.970;2022-08-19T05:29:28;98782.88;;;24.80;81.66
21086;BME280;34247;50.064;19.970;2022-08-19T05:30:38;98773.69;;;24.87;81.25
21086;BME280;34247;50.064;19.970;2022-08-19T05:31:51;98772.84;;;24.93;80.90
21086;BME280;34247;50.064;19.970;2022-08-19T05:32:55;98777.06;;;25.09;80.35
21086;BME280;34247;50.064;19.970;2022-08-19T05:34:00;98783.72;;;25.13;79.49
21086;BME280;34247;50.064;19.970;2022-08-19T05:35:05;98784.13;;;25.23;79.54
21086;BME280;34247;50.064;19.970;2022-08-19T05:36:10;98788.28;;;25.33;78.81
21086;BME280;34247;50.064;19.970;2022-08-19T05:37:15;98784.53;;;25.40;78.56
21086;BME280;34247;50.064;19.970;2022-08-19T05:38:19;98784.72;;;25.52;78.12
21086;BME280;34247;50.064;19.970;2022-08-19T05:39:28;98783.84;;;25.65;77.39
21086;BME280;34247;50.064;19.970;2022-08-19T05:40:35;98780.72;;;25.74;76.97
21086;BME280;34247;50.064;19.970;2022-08-19T05:41:49;98774.41;;;25.87;76.15
21086;BME280;34247;50.064;19.970;2022-08-19T05:42:54;98774.53;;;25.99;75.83
21086;BME280;34247;50.064;19.970;2022-08-19T05:44:02;98777.41;;;26.10;75.26
21086;BME280;34247;50.064;19.970;2022-08-19T05:45:09;98771.28;;;26.22;74.37
21086;BME280;34247;50.064;19.970;2022-08-19T05:46:19;98770.59;;;26.33;73.54
21086;BME280;34247;50.064;19.970;2022-08-19T05:47:31;98772.66;;;26.44;73.09
21086;BME280;34247;50.064;19.970;2022-08-19T05:48:36;98775.13;;;26.52;72.72
21086;BME280;34247;50.064;19.970;2022-08-19T05:49:41;98780.06;;;26.62;72.20
21086;BME280;34247;50.064;19.970;2022-08-19T05:50:46;98774.56;;;26.69;71.93
21086;BME280;34247;50.064;19.970;2022-08-19T05:51:51;98772.81;;;26.81;71.40
21086;BME280;34247;50.064;19.970;2022-08-19T05:52:55;98783.19;;;26.90;71.00
21086;BME280;34247;50.064;19.970;2022-08-19T05:54:02;98777.25;;;27.00;70.52